Huvudsida
METAR-TAF:

METAR-TAF

Flygplatser :

Akureyri flygplats

Akureyri, Island

latitud: 65-41N, longitud: 018-05W, höjd: 23 m

Aktuellt väderrapport

Denna rapport gjordes för 48 minuter sedan, klockan 13:00 UTC
Vind 11 kt från syd
Temperatur 13°C
Fuktighet 51%
Tryck 998 hPa
Sikt 10 km eller mer
Brutna moln på en höjd av 5200 ft

METAR: BIAR 241300Z 17011KT 9999 BKN052 13/03 Q0998

Tid: 13:48 (13:48 UTC)

Väderprognos

Denna rapport gjordes för 3 timmar och 3 minuter sedan, klockan 10:45 UTC
Prognos gäller från 24 kl. 12 UTC till 25 kl. 12 UTC
Vind 8 kt från syd
Sikt 10 km eller mer
Spridda moln på en höjd av 4500 ft

TAF: BIAR 241045Z 2412/2512 18008KT 9999 SCT045 TX16/2415Z TN08/2504Z

Aktuella väderrapporter och prognoser från 4000 flygplatser (METAR- och TAF-rapporter).

De tillgängliga stationerna syns som gula och röda prickar på kartan.

För musen över prickarna för att se namnen på stationerna.

Klicka sedan för att få väderrapporter och prognoser.

För att ändra kartan: Klicka på de gröna knapparna med ett svart kors på för att zooma in; den gröna knappen med ett streck på för att zooma ut; eller på de gröna pilarna för angränsande kartor.


METAR-TAF: